Terminal Aerodrome Forecast
Issued by NWS

Home | Current Version | Previous Version | Graphics & Text | Print | Product List | Glossary On
Versions: 1 2 3 4 5 6 7 8 9 10 11 12 13 14 15
000
FTUS43 KICT 271720
TAFCNU
TAF
KCNU 271720Z 2718/2818 31012KT P6SM SCT020 OVC060
     FM272000 34011KT P6SM SCT070 BKN250
     FM280000 34005KT P6SM SKC
     FM281200 00000KT P6SM BKN250=

USA.gov is the U.S. government's official web portal to all federal, state and local government web resources and services.